sensor_id;sensor_type;location;lat;lon;timestamp;P1;durP1;ratioP1;P2;durP2;ratioP2
17991;SDS011;9121;50.926;5.340;2023-12-29T14:12:18;3.40;;;1.50;;
17991;SDS011;9121;50.926;5.340;2023-12-29T14:14:51;5.60;;;1.57;;
17991;SDS011;9121;50.926;5.340;2023-12-29T14:17:20;9.73;;;1.80;;
17991;SDS011;9121;50.926;5.340;2023-12-29T14:19:47;4.13;;;1.40;;
17991;SDS011;9121;50.926;5.340;2023-12-29T14:22:20;3.03;;;1.00;;
17991;SDS011;9121;50.926;5.340;2023-12-29T14:24:58;5.93;;;1.60;;
17991;SDS011;9121;50.926;5.340;2023-12-29T14:27:28;4.37;;;1.60;;
17991;SDS011;9121;50.926;5.340;2023-12-29T14:29:55;4.23;;;1.50;;
17991;SDS011;9121;50.926;5.340;2023-12-29T14:32:23;4.80;;;1.60;;
17991;SDS011;9121;50.926;5.340;2023-12-29T14:34:50;3.47;;;1.50;;
17991;SDS011;9121;50.926;5.340;2023-12-29T14:37:20;2.07;;;1.10;;
17991;SDS011;9121;50.926;5.340;2023-12-29T14:39:48;2.53;;;1.33;;
17991;SDS011;9121;50.926;5.340;2023-12-29T14:42:15;4.23;;;1.47;;
17991;SDS011;9121;50.926;5.340;2023-12-29T14:44:44;4.00;;;1.37;;
17991;SDS011;9121;50.926;5.340;2023-12-29T14:47:12;6.47;;;1.77;;
17991;SDS011;9121;50.926;5.340;2023-12-29T14:49:40;3.07;;;1.50;;
17991;SDS011;9121;50.926;5.340;2023-12-29T14:52:07;5.87;;;1.53;;
17991;SDS011;9121;50.926;5.340;2023-12-29T14:54:34;4.17;;;1.47;;
17991;SDS011;9121;50.926;5.340;2023-12-29T14:57:01;5.93;;;1.83;;
17991;SDS011;9121;50.926;5.340;2023-12-29T14:59:28;7.87;;;2.17;;
17991;SDS011;9121;50.926;5.340;2023-12-29T15:01:57;10.07;;;2.20;;
17991;SDS011;9121;50.926;5.340;2023-12-29T15:04:24;5.63;;;2.00;;
17991;SDS011;9121;50.926;5.340;2023-12-29T15:06:51;8.00;;;2.10;;
17991;SDS011;9121;50.926;5.340;2023-12-29T15:09:18;6.80;;;2.17;;
17991;SDS011;9121;50.926;5.340;2023-12-29T15:11:45;4.53;;;1.60;;
17991;SDS011;9121;50.926;5.340;2023-12-29T15:14:14;9.37;;;2.60;;
17991;SDS011;9121;50.926;5.340;2023-12-29T15:16:41;6.70;;;2.03;;
17991;SDS011;9121;50.926;5.340;2023-12-29T15:19:09;12.80;;;2.67;;
17991;SDS011;9121;50.926;5.340;2023-12-29T15:21:37;8.37;;;2.40;;
17991;SDS011;9121;50.926;5.340;2023-12-29T15:24:04;14.03;;;3.13;;
17991;SDS011;9121;50.926;5.340;2023-12-29T15:26:32;8.40;;;2.57;;
17991;SDS011;9121;50.926;5.340;2023-12-29T15:28:59;8.13;;;2.40;;
17991;SDS011;9121;50.926;5.340;2023-12-29T15:31:26;10.00;;;2.50;;
17991;SDS011;9121;50.926;5.340;2023-12-29T15:33:53;12.17;;;2.30;;
17991;SDS011;9121;50.926;5.340;2023-12-29T15:36:22;12.80;;;2.50;;
17991;SDS011;9121;50.926;5.340;2023-12-29T15:38:49;7.83;;;2.50;;
17991;SDS011;9121;50.926;5.340;2023-12-29T15:41:16;14.47;;;2.57;;
17991;SDS011;9121;50.926;5.340;2023-12-29T15:43:43;9.57;;;2.10;;
17991;SDS011;9121;50.926;5.340;2023-12-29T15:46:14;4.97;;;2.23;;
17991;SDS011;9121;50.926;5.340;2023-12-29T15:48:42;13.20;;;2.47;;
17991;SDS011;9121;50.926;5.340;2023-12-29T15:51:09;10.33;;;1.77;;
17991;SDS011;9121;50.926;5.340;2023-12-29T15:53:38;9.90;;;2.30;;
17991;SDS011;9121;50.926;5.340;2023-12-29T15:56:05;11.17;;;2.20;;
17991;SDS011;9121;50.926;5.340;2023-12-29T15:58:32;11.60;;;2.90;;
17991;SDS011;9121;50.926;5.340;2023-12-29T16:00:59;10.53;;;2.50;;
17991;SDS011;9121;50.926;5.340;2023-12-29T16:03:26;13.13;;;2.43;;
17991;SDS011;9121;50.926;5.340;2023-12-29T16:05:57;10.10;;;2.23;;
17991;SDS011;9121;50.926;5.340;2023-12-29T16:08:26;13.07;;;2.67;;
17991;SDS011;9121;50.926;5.340;2023-12-29T16:10:54;11.33;;;2.47;;
17991;SDS011;9121;50.926;5.340;2023-12-29T16:13:21;11.20;;;2.33;;
17991;SDS011;9121;50.926;5.340;2023-12-29T16:15:48;8.87;;;2.20;;
17991;SDS011;9121;50.926;5.340;2023-12-29T16:18:15;7.30;;;2.10;;
17991;SDS011;9121;50.926;5.340;2023-12-29T16:20:44;14.90;;;2.50;;
17991;SDS011;9121;50.926;5.340;2023-12-29T16:23:11;10.07;;;2.70;;
17991;SDS011;9121;50.926;5.340;2023-12-29T16:25:38;14.20;;;2.60;;
17991;SDS011;9121;50.926;5.340;2023-12-29T16:28:06;9.00;;;2.73;;
17991;SDS011;9121;50.926;5.340;2023-12-29T16:30:33;9.00;;;2.37;;
17991;SDS011;9121;50.926;5.340;2023-12-29T16:33:01;10.33;;;2.00;;
17991;SDS011;9121;50.926;5.340;2023-12-29T16:35:30;8.60;;;2.40;;
17991;SDS011;9121;50.926;5.340;2023-12-29T16:37:57;5.33;;;1.90;;
17991;SDS011;9121;50.926;5.340;2023-12-29T16:40:24;7.50;;;2.37;;
17991;SDS011;9121;50.926;5.340;2023-12-29T16:42:51;5.37;;;2.07;;
17991;SDS011;9121;50.926;5.340;2023-12-29T16:45:20;5.63;;;2.03;;
17991;SDS011;9121;50.926;5.340;2023-12-29T16:47:46;7.67;;;2.07;;
17991;SDS011;9121;50.926;5.340;2023-12-29T16:50:13;11.83;;;2.20;;
17991;SDS011;9121;50.926;5.340;2023-12-29T16:52:40;10.20;;;2.23;;
17991;SDS011;9121;50.926;5.340;2023-12-29T16:55:09;6.23;;;2.10;;
17991;SDS011;9121;50.926;5.340;2023-12-29T16:57:36;5.47;;;2.00;;
17991;SDS011;9121;50.926;5.340;2023-12-29T17:00:03;9.30;;;2.30;;
17991;SDS011;9121;50.926;5.340;2023-12-29T17:02:32;9.83;;;2.40;;
17991;SDS011;9121;50.926;5.340;2023-12-29T17:04:59;8.77;;;2.47;;
17991;SDS011;9121;50.926;5.340;2023-12-29T17:07:26;8.00;;;2.40;;
17991;SDS011;9121;50.926;5.340;2023-12-29T17:09:52;11.97;;;2.67;;
17991;SDS011;9121;50.926;5.340;2023-12-29T17:12:19;12.17;;;2.47;;
17991;SDS011;9121;50.926;5.340;2023-12-29T17:14:47;9.40;;;2.60;;
17991;SDS011;9121;50.926;5.340;2023-12-29T17:17:14;11.10;;;2.50;;
17991;SDS011;9121;50.926;5.340;2023-12-29T17:19:42;11.80;;;2.80;;
17991;SDS011;9121;50.926;5.340;2023-12-29T17:22:09;9.87;;;2.40;;
17991;SDS011;9121;50.926;5.340;2023-12-29T17:24:36;9.60;;;2.53;;
17991;SDS011;9121;50.926;5.340;2023-12-29T17:27:03;14.90;;;4.60;;
17991;SDS011;9121;50.926;5.340;2023-12-29T17:29:32;12.37;;;2.73;;
17991;SDS011;9121;50.926;5.340;2023-12-29T17:31:59;11.87;;;2.70;;
17991;SDS011;9121;50.926;5.340;2023-12-29T17:34:27;13.20;;;2.77;;
17991;SDS011;9121;50.926;5.340;2023-12-29T17:36:56;14.53;;;2.93;;
17991;SDS011;9121;50.926;5.340;2023-12-29T17:39:24;9.17;;;2.40;;
17991;SDS011;9121;50.926;5.340;2023-12-29T17:41:51;11.47;;;2.50;;
17991;SDS011;9121;50.926;5.340;2023-12-29T17:44:18;11.10;;;2.23;;
17991;SDS011;9121;50.926;5.340;2023-12-29T17:46:45;13.37;;;2.93;;
17991;SDS011;9121;50.926;5.340;2023-12-29T17:49:12;15.07;;;2.37;;
17991;SDS011;9121;50.926;5.340;2023-12-29T17:51:39;11.90;;;2.03;;
17991;SDS011;9121;50.926;5.340;2023-12-29T17:54:07;8.38;;;2.63;;
17991;SDS011;9121;50.926;5.340;2023-12-29T17:56:34;11.30;;;2.50;;
17991;SDS011;9121;50.926;5.340;2023-12-29T17:59:01;11.07;;;2.30;;
17991;SDS011;9121;50.926;5.340;2023-12-29T18:01:28;9.97;;;2.50;;
17991;SDS011;9121;50.926;5.340;2023-12-29T18:03:55;14.23;;;2.63;;
17991;SDS011;9121;50.926;5.340;2023-12-29T18:06:22;13.97;;;2.87;;
17991;SDS011;9121;50.926;5.340;2023-12-29T18:08:49;11.33;;;2.40;;
17991;SDS011;9121;50.926;5.340;2023-12-29T18:11:21;15.33;;;2.77;;
17991;SDS011;9121;50.926;5.340;2023-12-29T18:13:48;7.03;;;2.10;;
17991;SDS011;9121;50.926;5.340;2023-12-29T18:16:15;16.03;;;2.80;;
17991;SDS011;9121;50.926;5.340;2023-12-29T18:18:42;8.30;;;2.27;;
17991;SDS011;9121;50.926;5.340;2023-12-29T18:21:09;9.75;;;2.25;;
17991;SDS011;9121;50.926;5.340;2023-12-29T18:23:36;9.07;;;2.40;;
17991;SDS011;9121;50.926;5.340;2023-12-29T18:26:03;13.87;;;3.07;;
17991;SDS011;9121;50.926;5.340;2023-12-29T18:28:31;8.57;;;2.83;;
17991;SDS011;9121;50.926;5.340;2023-12-29T18:31:00;15.63;;;3.47;;
17991;SDS011;9121;50.926;5.340;2023-12-29T18:33:28;12.40;;;2.43;;
17991;SDS011;9121;50.926;5.340;2023-12-29T18:35:55;12.97;;;2.70;;
17991;SDS011;9121;50.926;5.340;2023-12-29T18:38:22;7.17;;;2.03;;
17991;SDS011;9121;50.926;5.340;2023-12-29T18:40:49;13.10;;;2.73;;
17991;SDS011;9121;50.926;5.340;2023-12-29T18:43:16;15.30;;;3.07;;
17991;SDS011;9121;50.926;5.340;2023-12-29T18:45:45;13.67;;;2.73;;
17991;SDS011;9121;50.926;5.340;2023-12-29T18:48:13;8.60;;;2.73;;
17991;SDS011;9121;50.926;5.340;2023-12-29T18:50:40;11.27;;;2.50;;
17991;SDS011;9121;50.926;5.340;2023-12-29T18:53:07;10.47;;;2.20;;
17991;SDS011;9121;50.926;5.340;2023-12-29T18:55:34;14.43;;;2.70;;
17991;SDS011;9121;50.926;5.340;2023-12-29T18:58:01;12.93;;;2.80;;
17991;SDS011;9121;50.926;5.340;2023-12-29T19:00:28;11.10;;;2.47;;
17991;SDS011;9121;50.926;5.340;2023-12-29T19:02:56;5.83;;;2.10;;
17991;SDS011;9121;50.926;5.340;2023-12-29T19:05:23;7.43;;;2.23;;
17991;SDS011;9121;50.926;5.340;2023-12-29T19:07:50;12.77;;;2.33;;
17991;SDS011;9121;50.926;5.340;2023-12-29T19:10:17;9.00;;;2.17;;
17991;SDS011;9121;50.926;5.340;2023-12-29T19:12:45;7.33;;;2.30;;
17991;SDS011;9121;50.926;5.340;2023-12-29T19:15:12;12.73;;;2.20;;
17991;SDS011;9121;50.926;5.340;2023-12-29T19:17:39;11.07;;;2.10;;
17991;SDS011;9121;50.926;5.340;2023-12-29T19:20:08;15.03;;;2.90;;
17991;SDS011;9121;50.926;5.340;2023-12-29T19:22:37;10.63;;;2.57;;
17991;SDS011;9121;50.926;5.340;2023-12-29T19:25:07;14.00;;;3.20;;
17991;SDS011;9121;50.926;5.340;2023-12-29T19:27:34;11.57;;;2.60;;
17991;SDS011;9121;50.926;5.340;2023-12-29T19:30:02;17.33;;;2.70;;
17991;SDS011;9121;50.926;5.340;2023-12-29T19:32:29;15.13;;;3.50;;
17991;SDS011;9121;50.926;5.340;2023-12-29T19:34:56;11.97;;;2.43;;
17991;SDS011;9121;50.926;5.340;2023-12-29T19:37:24;11.90;;;2.30;;
17991;SDS011;9121;50.926;5.340;2023-12-29T19:39:51;13.97;;;2.47;;
17991;SDS011;9121;50.926;5.340;2023-12-29T19:42:19;14.77;;;2.67;;
17991;SDS011;9121;50.926;5.340;2023-12-29T19:44:46;18.37;;;2.87;;
17991;SDS011;9121;50.926;5.340;2023-12-29T19:47:13;15.83;;;2.93;;
17991;SDS011;9121;50.926;5.340;2023-12-29T19:49:40;20.10;;;3.07;;
17991;SDS011;9121;50.926;5.340;2023-12-29T19:52:08;18.53;;;3.30;;
17991;SDS011;9121;50.926;5.340;2023-12-29T19:54:37;21.13;;;2.83;;
17991;SDS011;9121;50.926;5.340;2023-12-29T19:57:05;14.13;;;2.50;;
17991;SDS011;9121;50.926;5.340;2023-12-29T19:59:32;16.73;;;2.80;;
17991;SDS011;9121;50.926;5.340;2023-12-29T20:01:59;20.67;;;2.67;;
17991;SDS011;9121;50.926;5.340;2023-12-29T20:04:26;19.77;;;3.43;;
17991;SDS011;9121;50.926;5.340;2023-12-29T20:06:53;17.77;;;2.60;;
17991;SDS011;9121;50.926;5.340;2023-12-29T20:09:20;17.47;;;2.93;;
17991;SDS011;9121;50.926;5.340;2023-12-29T20:11:49;16.00;;;3.07;;
17991;SDS011;9121;50.926;5.340;2023-12-29T20:14:15;19.20;;;3.43;;
17991;SDS011;9121;50.926;5.340;2023-12-29T20:16:43;18.77;;;2.83;;
17991;SDS011;9121;50.926;5.340;2023-12-29T20:19:10;17.73;;;3.53;;
17991;SDS011;9121;50.926;5.340;2023-12-29T20:21:37;19.73;;;3.40;;
17991;SDS011;9121;50.926;5.340;2023-12-29T20:24:04;27.17;;;3.87;;
17991;SDS011;9121;50.926;5.340;2023-12-29T20:26:34;18.93;;;3.57;;
17991;SDS011;9121;50.926;5.340;2023-12-29T20:29:03;16.70;;;3.17;;
17991;SDS011;9121;50.926;5.340;2023-12-29T20:31:31;13.60;;;2.67;;
17991;SDS011;9121;50.926;5.340;2023-12-29T20:33:58;20.97;;;4.03;;
17991;SDS011;9121;50.926;5.340;2023-12-29T20:36:26;22.67;;;3.60;;
17991;SDS011;9121;50.926;5.340;2023-12-29T20:38:53;18.93;;;3.90;;
17991;SDS011;9121;50.926;5.340;2023-12-29T20:41:21;19.70;;;3.13;;
17991;SDS011;9121;50.926;5.340;2023-12-29T20:43:49;19.20;;;3.07;;
17991;SDS011;9121;50.926;5.340;2023-12-29T20:46:19;15.30;;;2.43;;
17991;SDS011;9121;50.926;5.340;2023-12-29T20:48:47;7.87;;;1.90;;
17991;SDS011;9121;50.926;5.340;2023-12-29T20:51:15;12.33;;;2.20;;
17991;SDS011;9121;50.926;5.340;2023-12-29T20:53:44;5.90;;;1.70;;
17991;SDS011;9121;50.926;5.340;2023-12-29T20:56:11;16.93;;;2.53;;
17991;SDS011;9121;50.926;5.340;2023-12-29T20:58:38;10.17;;;2.40;;
17991;SDS011;9121;50.926;5.340;2023-12-29T21:01:05;12.23;;;2.30;;
17991;SDS011;9121;50.926;5.340;2023-12-29T21:03:34;13.97;;;3.23;;
17991;SDS011;9121;50.926;5.340;2023-12-29T21:06:01;13.57;;;2.10;;
17991;SDS011;9121;50.926;5.340;2023-12-29T21:08:31;8.83;;;1.80;;
17991;SDS011;9121;50.926;5.340;2023-12-29T21:10:58;18.83;;;2.00;;
17991;SDS011;9121;50.926;5.340;2023-12-29T21:13:25;9.50;;;1.87;;
17991;SDS011;9121;50.926;5.340;2023-12-29T21:15:53;7.03;;;1.30;;
17991;SDS011;9121;50.926;5.340;2023-12-29T21:18:20;7.57;;;1.60;;
17991;SDS011;9121;50.926;5.340;2023-12-29T21:20:48;8.40;;;1.90;;
17991;SDS011;9121;50.926;5.340;2023-12-29T21:23:17;12.10;;;1.80;;
17991;SDS011;9121;50.926;5.340;2023-12-29T21:25:46;9.37;;;1.80;;
17991;SDS011;9121;50.926;5.340;2023-12-29T21:28:13;11.80;;;2.13;;
17991;SDS011;9121;50.926;5.340;2023-12-29T21:30:40;12.73;;;1.93;;
17991;SDS011;9121;50.926;5.340;2023-12-29T21:33:07;10.53;;;1.53;;
17991;SDS011;9121;50.926;5.340;2023-12-29T21:35:34;9.97;;;1.97;;
17991;SDS011;9121;50.926;5.340;2023-12-29T21:38:02;11.07;;;1.90;;
17991;SDS011;9121;50.926;5.340;2023-12-29T21:40:29;10.33;;;1.90;;
17991;SDS011;9121;50.926;5.340;2023-12-29T21:42:56;8.63;;;2.10;;
17991;SDS011;9121;50.926;5.340;2023-12-29T21:45:23;10.50;;;2.27;;
17991;SDS011;9121;50.926;5.340;2023-12-29T21:47:52;17.87;;;2.80;;
17991;SDS011;9121;50.926;5.340;2023-12-29T21:50:19;10.20;;;2.40;;
17991;SDS011;9121;50.926;5.340;2023-12-29T21:52:46;15.53;;;2.27;;
17991;SDS011;9121;50.926;5.340;2023-12-29T21:55:14;12.03;;;2.00;;
17991;SDS011;9121;50.926;5.340;2023-12-29T21:57:43;15.07;;;2.93;;
17991;SDS011;9121;50.926;5.340;2023-12-29T22:00:10;12.50;;;2.20;;
17991;SDS011;9121;50.926;5.340;2023-12-29T22:02:38;21.13;;;2.70;;
17991;SDS011;9121;50.926;5.340;2023-12-29T22:05:05;13.23;;;2.50;;
17991;SDS011;9121;50.926;5.340;2023-12-29T22:07:32;13.87;;;2.47;;
17991;SDS011;9121;50.926;5.340;2023-12-29T22:10:00;13.07;;;2.87;;
17991;SDS011;9121;50.926;5.340;2023-12-29T22:12:30;13.53;;;2.30;;
17991;SDS011;9121;50.926;5.340;2023-12-29T22:14:57;24.87;;;3.40;;
17991;SDS011;9121;50.926;5.340;2023-12-29T22:17:25;20.00;;;3.70;;
17991;SDS011;9121;50.926;5.340;2023-12-29T22:19:53;18.33;;;2.50;;
17991;SDS011;9121;50.926;5.340;2023-12-29T22:22:20;15.77;;;2.77;;
17991;SDS011;9121;50.926;5.340;2023-12-29T22:24:47;17.67;;;3.40;;
17991;SDS011;9121;50.926;5.340;2023-12-29T22:27:15;20.20;;;3.00;;
17991;SDS011;9121;50.926;5.340;2023-12-29T22:29:43;18.43;;;3.30;;
17991;SDS011;9121;50.926;5.340;2023-12-29T22:32:10;19.20;;;3.10;;
17991;SDS011;9121;50.926;5.340;2023-12-29T22:34:37;25.27;;;3.90;;
17991;SDS011;9121;50.926;5.340;2023-12-29T22:37:03;18.47;;;2.77;;
17991;SDS011;9121;50.926;5.340;2023-12-29T22:39:31;21.10;;;3.33;;
17991;SDS011;9121;50.926;5.340;2023-12-29T22:41:58;20.73;;;3.90;;
17991;SDS011;9121;50.926;5.340;2023-12-29T22:44:26;16.60;;;3.17;;
17991;SDS011;9121;50.926;5.340;2023-12-29T22:46:55;18.57;;;3.53;;
17991;SDS011;9121;50.926;5.340;2023-12-29T22:49:22;17.90;;;3.10;;
17991;SDS011;9121;50.926;5.340;2023-12-29T22:51:48;18.70;;;3.00;;
17991;SDS011;9121;50.926;5.340;2023-12-29T22:54:15;17.33;;;2.93;;
17991;SDS011;9121;50.926;5.340;2023-12-29T22:56:42;23.07;;;3.07;;
17991;SDS011;9121;50.926;5.340;2023-12-29T22:59:09;14.63;;;2.87;;
17991;SDS011;9121;50.926;5.340;2023-12-29T23:01:36;20.27;;;3.13;;
17991;SDS011;9121;50.926;5.340;2023-12-29T23:04:06;13.37;;;2.97;;
17991;SDS011;9121;50.926;5.340;2023-12-29T23:06:33;18.37;;;2.97;;
17991;SDS011;9121;50.926;5.340;2023-12-29T23:09:00;24.67;;;3.63;;
17991;SDS011;9121;50.926;5.340;2023-12-29T23:11:27;17.47;;;3.03;;
17991;SDS011;9121;50.926;5.340;2023-12-29T23:13:54;12.30;;;2.80;;
17991;SDS011;9121;50.926;5.340;2023-12-29T23:16:21;18.67;;;3.50;;
17991;SDS011;9121;50.926;5.340;2023-12-29T23:18:48;18.57;;;3.13;;
17991;SDS011;9121;50.926;5.340;2023-12-29T23:21:16;20.47;;;3.13;;
17991;SDS011;9121;50.926;5.340;2023-12-29T23:23:45;17.90;;;3.57;;
17991;SDS011;9121;50.926;5.340;2023-12-29T23:26:12;20.60;;;2.33;;
17991;SDS011;9121;50.926;5.340;2023-12-29T23:28:39;15.27;;;2.73;;
17991;SDS011;9121;50.926;5.340;2023-12-29T23:31:06;18.17;;;2.73;;
17991;SDS011;9121;50.926;5.340;2023-12-29T23:33:34;15.73;;;3.30;;
17991;SDS011;9121;50.926;5.340;2023-12-29T23:36:01;20.83;;;3.13;;
17991;SDS011;9121;50.926;5.340;2023-12-29T23:38:29;20.30;;;2.80;;
17991;SDS011;9121;50.926;5.340;2023-12-29T23:40:56;18.57;;;3.37;;
17991;SDS011;9121;50.926;5.340;2023-12-29T23:43:24;20.23;;;3.70;;
17991;SDS011;9121;50.926;5.340;2023-12-29T23:45:51;28.37;;;3.67;;
17991;SDS011;9121;50.926;5.340;2023-12-29T23:48:18;15.87;;;3.07;;
17991;SDS011;9121;50.926;5.340;2023-12-29T23:50:45;26.07;;;4.33;;
17991;SDS011;9121;50.926;5.340;2023-12-29T23:53:12;22.17;;;3.50;;
17991;SDS011;9121;50.926;5.340;2023-12-29T23:55:40;18.07;;;3.50;;
17991;SDS011;9121;50.926;5.340;2023-12-29T23:58:07;25.63;;;3.70;;
